createdAt,value
2022-10-13T00:00:14.183Z,11.84
2022-10-13T00:02:41.996Z,12.03
2022-10-13T00:05:08.815Z,11.83
2022-10-13T00:07:35.259Z,11.94
2022-10-13T00:10:01.682Z,11.99
2022-10-13T00:12:28.086Z,11.97
2022-10-13T00:14:54.594Z,11.93
2022-10-13T00:17:21.020Z,12.00
2022-10-13T00:19:48.793Z,11.99
2022-10-13T00:22:15.255Z,11.87
2022-10-13T00:24:41.737Z,11.96
2022-10-13T00:27:08.199Z,11.97
2022-10-13T00:29:34.776Z,12.02
2022-10-13T00:32:01.223Z,12.08
2022-10-13T00:34:27.628Z,12.11
2022-10-13T00:36:55.448Z,12.27
2022-10-13T00:39:21.862Z,12.17
2022-10-13T00:41:48.302Z,12.18
2022-10-13T00:44:33.289Z,12.22
2022-10-13T00:46:59.812Z,12.30
2022-10-13T00:49:26.316Z,12.14
2022-10-13T00:51:52.830Z,12.13
2022-10-13T00:54:24.215Z,12.07
2022-10-13T00:56:51.440Z,11.95
2022-10-13T00:59:20.678Z,11.95
2022-10-13T01:01:47.127Z,12.02
2022-10-13T01:04:13.801Z,12.01
2022-10-13T01:06:40.682Z,11.55
2022-10-13T01:09:07.216Z,11.65
2022-10-13T01:11:43.258Z,11.51
2022-10-13T01:14:16.185Z,11.26
2022-10-13T01:16:49.160Z,11.30
2022-10-13T01:19:30.490Z,11.18
2022-10-13T01:22:01.880Z,11.29
2022-10-13T01:24:45.057Z,11.16
2022-10-13T01:27:18.353Z,11.22
2022-10-13T01:30:08.490Z,11.08
2022-10-13T01:33:01.718Z,11.04
2022-10-13T01:35:35.202Z,11.10
2022-10-13T01:38:06.840Z,10.89
2022-10-13T01:40:38.431Z,11.06
2022-10-13T01:43:08.653Z,10.99
2022-10-13T01:45:37.101Z,10.97
2022-10-13T01:48:05.184Z,11.08
2022-10-13T01:50:36.004Z,11.05
2022-10-13T01:53:03.458Z,11.01
2022-10-13T01:55:29.883Z,10.98
2022-10-13T01:57:56.345Z,11.20
2022-10-13T02:00:23.039Z,10.99
2022-10-13T02:02:55.259Z,11.07
2022-10-13T02:05:26.324Z,10.78
2022-10-13T02:07:57.872Z,10.78
2022-10-13T02:10:27.385Z,10.79
2022-10-13T02:12:56.693Z,10.90
2022-10-13T02:15:25.246Z,10.92
2022-10-13T02:17:52.561Z,10.90
2022-10-13T02:20:19.991Z,10.88
2022-10-13T02:22:47.771Z,10.71
2022-10-13T02:25:15.646Z,10.77
2022-10-13T02:27:42.240Z,10.67
2022-10-13T02:30:09.191Z,10.58
2022-10-13T02:32:35.626Z,10.55
2022-10-13T02:35:02.021Z,10.69
2022-10-13T02:37:28.399Z,10.56
2022-10-13T02:39:54.828Z,10.44
2022-10-13T02:42:23.140Z,10.48
2022-10-13T02:44:49.907Z,10.42
2022-10-13T02:47:16.324Z,10.30
2022-10-13T02:49:42.806Z,10.39
2022-10-13T02:52:09.269Z,10.51
2022-10-13T02:54:35.685Z,10.44
2022-10-13T02:57:02.124Z,10.43
2022-10-13T02:59:29.941Z,10.34
2022-10-13T03:01:56.357Z,10.41
2022-10-13T03:04:22.768Z,10.38
2022-10-13T03:06:49.180Z,10.28
2022-10-13T03:09:15.923Z,10.38
2022-10-13T03:11:42.338Z,10.25
2022-10-13T03:14:08.738Z,10.32
2022-10-13T03:16:36.577Z,10.45
2022-10-13T03:19:03.224Z,10.11
2022-10-13T03:21:29.717Z,10.11
2022-10-13T03:23:56.176Z,10.21
2022-10-13T03:26:22.611Z,10.16
2022-10-13T03:28:49.352Z,10.21
2022-10-13T03:31:16.268Z,10.16
2022-10-13T03:33:44.208Z,10.19
2022-10-13T03:36:11.605Z,10.20
2022-10-13T03:38:38.029Z,10.29
2022-10-13T03:41:05.278Z,10.30
2022-10-13T03:43:31.736Z,10.31
2022-10-13T03:45:58.734Z,10.00
2022-10-13T03:48:25.406Z,10.08
2022-10-13T03:50:53.403Z,10.10
2022-10-13T03:53:20.060Z,10.23
2022-10-13T03:55:48.886Z,10.29
2022-10-13T03:58:15.315Z,10.45
2022-10-13T04:00:41.699Z,10.19
2022-10-13T04:03:08.121Z,10.20
2022-10-13T04:05:34.678Z,10.29
2022-10-13T04:08:02.513Z,10.25
2022-10-13T04:10:28.917Z,10.19
2022-10-13T04:12:55.384Z,10.06
2022-10-13T04:18:12.221Z,10.18
2022-10-13T04:20:38.902Z,10.24
2022-10-13T04:23:07.494Z,10.12
2022-10-13T04:25:34.916Z,9.97
2022-10-13T04:28:01.326Z,9.94
2022-10-13T04:30:27.753Z,10.14
2022-10-13T04:32:54.190Z,10.07
2022-10-13T04:35:20.594Z,10.06
2022-10-13T04:37:47.004Z,9.92
2022-10-13T04:40:14.875Z,10.11
2022-10-13T04:42:41.323Z,10.28
2022-10-13T04:45:08.465Z,10.12
2022-10-13T04:47:37.143Z,10.33
2022-10-13T04:50:03.910Z,10.21
2022-10-13T04:52:30.366Z,10.11
2022-10-13T04:54:56.785Z,10.01
2022-10-13T04:57:24.662Z,10.19
2022-10-13T04:59:51.065Z,10.04
2022-10-13T05:02:17.843Z,9.97
2022-10-13T05:04:44.638Z,10.18
2022-10-13T05:07:17.878Z,10.15
2022-10-13T05:09:44.814Z,10.16
2022-10-13T05:12:11.265Z,9.94
2022-10-13T05:14:39.142Z,9.97
2022-10-13T05:17:05.780Z,10.03
2022-10-13T05:19:32.169Z,10.10
2022-10-13T05:21:58.569Z,9.82
2022-10-13T05:24:25.034Z,9.95
2022-10-13T05:26:51.486Z,9.92
2022-10-13T05:29:17.958Z,10.06
2022-10-13T05:31:45.783Z,9.99
2022-10-13T05:34:12.189Z,9.97
2022-10-13T05:36:38.576Z,10.13
2022-10-13T05:39:06.234Z,10.23
2022-10-13T05:41:32.695Z,10.42
2022-10-13T05:44:01.710Z,10.35
2022-10-13T05:46:28.190Z,10.19
2022-10-13T05:48:55.977Z,10.36
2022-10-13T05:51:24.154Z,10.39
2022-10-13T05:53:56.842Z,10.32
2022-10-13T05:56:25.930Z,10.27
2022-10-13T05:58:55.469Z,10.24
2022-10-13T06:01:23.928Z,10.40
2022-10-13T06:03:52.637Z,10.47
2022-10-13T06:06:21.774Z,10.60
2022-10-13T06:08:48.234Z,10.41
2022-10-13T06:11:14.626Z,10.30
2022-10-13T06:13:41.060Z,10.15
2022-10-13T06:16:07.522Z,10.51
2022-10-13T06:18:33.930Z,10.42
2022-10-13T06:21:00.374Z,10.28
2022-10-13T06:23:28.159Z,10.26
2022-10-13T06:26:10.130Z,10.37
2022-10-13T06:28:36.708Z,10.24
2022-10-13T06:31:04.616Z,10.28
2022-10-13T06:33:31.087Z,10.38
2022-10-13T06:36:00.561Z,10.27
2022-10-13T06:38:28.337Z,10.36
2022-10-13T06:40:54.740Z,10.14
2022-10-13T06:43:21.124Z,10.37
2022-10-13T06:45:47.548Z,10.66
2022-10-13T06:48:13.948Z,10.70
2022-10-13T06:50:42.896Z,10.78
2022-10-13T06:53:09.470Z,10.90
2022-10-13T06:55:37.223Z,10.81
2022-10-13T06:58:03.593Z,10.82
2022-10-13T07:00:29.967Z,10.90
2022-10-13T07:02:56.457Z,10.96
2022-10-13T07:05:22.870Z,11.23
2022-10-13T07:07:51.801Z,11.15
2022-10-13T07:10:18.286Z,11.30
2022-10-13T07:12:46.055Z,11.31
2022-10-13T07:15:12.613Z,11.35
2022-10-13T07:17:39.028Z,11.23
2022-10-13T07:20:07.526Z,11.24
2022-10-13T07:22:34.206Z,11.61
2022-10-13T07:25:01.037Z,11.69
2022-10-13T07:27:27.918Z,11.58
2022-10-13T07:29:55.677Z,11.76
2022-10-13T07:32:22.102Z,11.86
2022-10-13T07:34:51.365Z,11.84
2022-10-13T07:37:18.231Z,12.15
2022-10-13T07:39:44.914Z,11.92
2022-10-13T07:42:11.339Z,12.22
2022-10-13T07:44:37.790Z,12.18
2022-10-13T07:47:05.839Z,12.39
2022-10-13T07:49:32.280Z,12.59
2022-10-13T07:51:58.765Z,12.44
2022-10-13T07:54:27.505Z,12.46
2022-10-13T07:56:54.444Z,12.39
2022-10-13T07:59:20.970Z,12.48
2022-10-13T08:01:47.907Z,12.49
2022-10-13T08:04:15.778Z,12.64
2022-10-13T08:06:42.232Z,12.77
2022-10-13T08:09:09.439Z,13.11
2022-10-13T08:11:35.964Z,13.04
2022-10-13T08:14:02.515Z,12.99
2022-10-13T08:16:29.452Z,13.21
2022-10-13T08:18:56.866Z,13.37
2022-10-13T08:21:57.753Z,13.28
2022-10-13T08:24:12.393Z,13.52
2022-10-13T08:26:38.935Z,13.73
2022-10-13T08:29:22.377Z,13.94
2022-10-13T08:31:50.484Z,13.73
2022-10-13T08:34:17.079Z,13.84
2022-10-13T08:36:45.011Z,13.96
2022-10-13T08:39:11.489Z,14.04
2022-10-13T08:41:39.387Z,14.07
2022-10-13T08:44:59.266Z,14.12
2022-10-13T08:46:59.740Z,14.31
2022-10-13T08:49:27.703Z,14.27
2022-10-13T08:51:55.686Z,14.81
2022-10-13T08:54:24.535Z,15.09
2022-10-13T08:56:51.185Z,14.81
2022-10-13T08:59:18.269Z,14.84
2022-10-13T09:01:45.516Z,14.90
2022-10-13T09:04:19.016Z,14.98
2022-10-13T09:06:46.904Z,14.96
2022-10-13T09:09:15.693Z,14.75
2022-10-13T09:11:43.967Z,14.74
2022-10-13T09:14:11.739Z,14.92
2022-10-13T09:16:39.178Z,14.89
2022-10-13T09:19:12.607Z,14.73
2022-10-13T09:21:39.112Z,15.05
2022-10-13T09:24:07.770Z,14.96
2022-10-13T09:26:39.539Z,15.08
2022-10-13T09:29:08.651Z,15.29
2022-10-13T09:31:35.430Z,15.69
2022-10-13T09:34:09.222Z,15.70
2022-10-13T09:36:37.531Z,15.81
2022-10-13T09:39:05.467Z,15.86
2022-10-13T09:41:33.068Z,15.73
2022-10-13T09:44:09.728Z,15.92
2022-10-13T09:46:39.505Z,15.77
2022-10-13T09:49:08.043Z,15.98
2022-10-13T09:51:36.575Z,15.96
2022-10-13T09:54:03.869Z,15.90
2022-10-13T09:56:33.824Z,15.94
2022-10-13T09:59:04.524Z,16.23
2022-10-13T10:01:35.510Z,16.09
2022-10-13T10:04:04.087Z,16.20
2022-10-13T10:06:30.766Z,16.29
2022-10-13T10:09:04.299Z,16.45
2022-10-13T10:11:33.798Z,16.49
2022-10-13T10:14:02.466Z,16.37
2022-10-13T10:16:33.336Z,16.39
2022-10-13T10:19:07.957Z,16.73
2022-10-13T10:21:37.520Z,16.86
2022-10-13T10:24:08.130Z,16.56
2022-10-13T10:26:42.060Z,16.61
2022-10-13T10:29:25.960Z,16.33
2022-10-13T10:31:59.676Z,16.48
2022-10-13T10:34:34.890Z,16.55
2022-10-13T10:37:11.296Z,16.60
2022-10-13T10:39:41.569Z,16.51
2022-10-13T10:42:18.563Z,16.60
2022-10-13T10:47:22.497Z,16.61
2022-10-13T10:49:53.483Z,16.40
2022-10-13T10:52:24.117Z,16.62
2022-10-13T10:54:53.967Z,16.67
2022-10-13T10:57:23.328Z,16.52
2022-10-13T10:59:57.681Z,16.60
2022-10-13T11:02:54.541Z,16.68
2022-10-13T11:05:22.502Z,16.78
2022-10-13T11:07:55.879Z,17.01
2022-10-13T11:10:22.783Z,17.05
2022-10-13T11:13:04.072Z,17.21
2022-10-13T11:15:40.803Z,17.10
2022-10-13T11:18:22.137Z,16.98
2022-10-13T11:20:58.706Z,17.25
2022-10-13T11:23:31.565Z,17.56
2022-10-13T11:26:13.015Z,17.50
2022-10-13T11:28:45.702Z,17.66
2022-10-13T11:31:26.170Z,17.57
2022-10-13T11:33:54.193Z,17.39
2022-10-13T11:36:32.601Z,17.63
2022-10-13T11:39:02.938Z,17.45
2022-10-13T11:41:32.119Z,17.55
2022-10-13T11:44:02.839Z,17.54
2022-10-13T11:46:38.530Z,17.55
2022-10-13T11:49:32.693Z,17.57
2022-10-13T11:52:17.623Z,17.91
2022-10-13T11:54:50.214Z,18.01
2022-10-13T11:57:22.159Z,17.99
2022-10-13T11:59:50.843Z,18.18
2022-10-13T12:02:23.399Z,18.31
2022-10-13T12:05:04.010Z,18.25
2022-10-13T12:07:33.653Z,18.58
2022-10-13T12:13:32.985Z,18.70
2022-10-13T12:16:10.422Z,18.59
2022-10-13T12:18:41.700Z,18.32
2022-10-13T12:21:13.157Z,18.44
2022-10-13T12:23:40.411Z,18.51
2022-10-13T12:26:14.132Z,18.20
2022-10-13T12:28:48.686Z,18.16
2022-10-13T12:31:21.998Z,18.27
2022-10-13T12:33:53.813Z,18.31
2022-10-13T12:36:23.045Z,18.36
2022-10-13T12:38:53.680Z,18.30
2022-10-13T12:41:25.795Z,18.41
2022-10-13T12:43:53.158Z,18.64
2022-10-13T12:46:35.668Z,18.75
2022-10-13T12:49:05.537Z,18.70
2022-10-13T12:51:33.382Z,18.58
2022-10-13T12:54:07.432Z,18.78
2022-10-13T12:57:01.367Z,18.76
2022-10-13T13:02:20.791Z,18.86
2022-10-13T13:04:52.295Z,19.02
2022-10-13T13:07:32.283Z,19.09
2022-10-13T13:10:06.080Z,19.04
2022-10-13T13:12:53.731Z,18.90
2022-10-13T13:23:40.613Z,19.07
2022-10-13T13:26:24.291Z,19.00
2022-10-13T13:29:16.251Z,18.91
2022-10-13T13:31:44.202Z,18.98
2022-10-13T13:34:11.692Z,18.84
2022-10-13T13:36:54.545Z,19.02
2022-10-13T13:39:27.855Z,18.99
2022-10-13T13:42:09.577Z,18.95
2022-10-13T13:44:41.016Z,18.95
2022-10-13T13:47:17.732Z,19.00
2022-10-13T13:49:56.560Z,19.13
2022-10-13T13:52:29.955Z,19.20
2022-10-13T14:00:42.240Z,19.68
2022-10-13T14:08:52.410Z,19.63
2022-10-13T14:11:33.069Z,19.63
2022-10-13T14:14:24.562Z,19.70
2022-10-13T14:17:04.840Z,19.52
2022-10-13T14:25:09.981Z,19.50
2022-10-13T14:27:48.130Z,19.52
2022-10-13T14:30:36.980Z,19.47
2022-10-13T14:33:27.314Z,19.54
2022-10-13T14:42:07.353Z,19.24
2022-10-13T14:44:56.284Z,19.26
2022-10-13T14:47:34.354Z,19.32
2022-10-13T15:07:13.691Z,19.12
2022-10-13T15:11:24.597Z,19.05
2022-10-13T15:16:22.683Z,18.88
2022-10-13T15:19:03.174Z,18.90
2022-10-13T15:22:07.986Z,18.90
2022-10-13T15:27:52.043Z,18.78
2022-10-13T15:30:20.604Z,18.55
2022-10-13T15:32:49.254Z,18.47
2022-10-13T15:35:16.271Z,18.35
2022-10-13T15:37:48.129Z,18.31
2022-10-13T15:40:20.436Z,18.21
2022-10-13T15:42:58.227Z,18.13
2022-10-13T15:45:35.336Z,18.04
2022-10-13T15:48:30.627Z,18.02
2022-10-13T15:51:20.886Z,17.73
2022-10-13T15:53:48.262Z,17.54
2022-10-13T15:59:10.330Z,17.28
2022-10-13T16:01:56.385Z,17.15
2022-10-13T16:04:43.259Z,16.98
2022-10-13T16:07:18.400Z,16.81
2022-10-13T16:12:56.609Z,16.73
2022-10-13T16:15:29.620Z,16.55
2022-10-13T16:18:24.002Z,16.44
2022-10-13T16:26:58.182Z,16.23
2022-10-13T16:29:24.660Z,16.09
2022-10-13T16:35:08.630Z,15.97
2022-10-13T16:46:49.846Z,15.48
2022-10-13T16:49:25.822Z,15.50
2022-10-13T17:06:37.322Z,15.46
2022-10-13T17:09:10.734Z,15.54
2022-10-13T17:29:41.865Z,15.18
2022-10-13T17:32:08.584Z,15.14
2022-10-13T17:34:37.260Z,15.23
2022-10-13T17:37:03.800Z,15.32
2022-10-13T17:39:34.440Z,15.16
2022-10-13T17:42:03.364Z,15.06
2022-10-13T17:44:33.246Z,14.86
2022-10-13T17:46:59.985Z,14.87
2022-10-13T17:49:39.584Z,14.71
2022-10-13T17:55:27.237Z,14.54
2022-10-13T17:57:53.950Z,14.46
2022-10-13T18:00:20.706Z,14.43
2022-10-13T18:02:47.891Z,14.46
2022-10-13T18:05:14.943Z,14.46
2022-10-13T18:07:41.740Z,14.73
2022-10-13T18:12:51.113Z,14.71
2022-10-13T18:15:21.000Z,14.58
2022-10-13T18:17:48.502Z,14.56
2022-10-13T18:20:15.377Z,14.40
2022-10-13T18:22:42.197Z,14.46
2022-10-13T18:25:21.326Z,14.40
2022-10-13T18:27:50.488Z,14.47
2022-10-13T18:30:22.352Z,14.40
2022-10-13T18:32:49.773Z,14.33
2022-10-13T18:35:19.363Z,14.28
2022-10-13T18:38:49.098Z,14.14
2022-10-13T18:47:51.047Z,14.39
2022-10-13T18:54:18.614Z,14.51
2022-10-13T18:56:22.781Z,14.40
2022-10-13T19:52:07.930Z,14.01
2022-10-13T19:54:38.007Z,14.07
2022-10-13T19:57:20.137Z,13.99
2022-10-13T19:59:53.340Z,14.04
2022-10-13T20:02:33.146Z,14.07
2022-10-13T20:13:44.760Z,14.28
2022-10-13T20:16:30.636Z,14.25
2022-10-13T20:19:03.446Z,14.01
2022-10-13T20:24:12.150Z,14.08
2022-10-13T20:26:53.793Z,14.16
2022-10-13T20:29:29.144Z,14.22
2022-10-13T20:32:11.444Z,14.03
2022-10-13T20:34:38.099Z,14.17
2022-10-13T20:37:04.575Z,14.12
2022-10-13T20:39:32.734Z,14.14
2022-10-13T20:41:59.441Z,14.12
2022-10-13T20:44:26.974Z,14.25
2022-10-13T20:46:58.409Z,14.29
2022-10-13T20:49:33.596Z,14.28
2022-10-13T20:52:00.270Z,14.20
2022-10-13T20:54:28.717Z,13.94
2022-10-13T20:57:02.892Z,13.79
2022-10-13T20:59:29.376Z,13.87
2022-10-13T21:01:55.983Z,13.74
2022-10-13T21:04:22.490Z,13.67
2022-10-13T21:06:49.319Z,13.56
2022-10-13T21:12:36.359Z,13.64
2022-10-13T21:17:45.285Z,13.70
2022-10-13T21:20:19.539Z,13.85
2022-10-13T21:22:46.123Z,13.91
2022-10-13T21:25:12.808Z,13.70
2022-10-13T21:27:40.877Z,13.52
2022-10-13T21:30:07.963Z,13.45
2022-10-13T21:32:34.738Z,13.37
2022-10-13T21:35:06.665Z,13.38
2022-10-13T21:37:33.326Z,13.40
2022-10-13T21:40:00.060Z,13.30
2022-10-13T21:42:28.745Z,13.23
2022-10-13T21:44:56.609Z,13.22
2022-10-13T21:47:23.499Z,13.17
2022-10-13T21:49:50.139Z,13.08
2022-10-13T21:52:16.841Z,13.27
2022-10-13T21:54:43.364Z,13.22
2022-10-13T21:57:09.825Z,12.94
2022-10-13T21:59:36.265Z,13.01
2022-10-13T22:02:05.441Z,13.02
2022-10-13T22:04:31.903Z,13.25
2022-10-13T22:06:58.375Z,13.20
2022-10-13T22:09:24.822Z,13.20
2022-10-13T22:11:56.494Z,13.12
2022-10-13T22:14:23.237Z,12.96
2022-10-13T22:16:51.346Z,13.22
2022-10-13T22:19:19.685Z,13.21
2022-10-13T22:21:47.123Z,13.18
2022-10-13T22:24:14.444Z,13.25
2022-10-13T22:26:41.524Z,13.17
2022-10-13T22:29:08.854Z,13.13
2022-10-13T22:31:35.828Z,13.16
2022-10-13T22:34:02.989Z,13.07
2022-10-13T22:36:31.132Z,13.06
2022-10-13T22:39:00.036Z,12.88
2022-10-13T22:41:26.453Z,12.97
2022-10-13T22:43:54.196Z,12.86
2022-10-13T22:46:21.828Z,12.93
2022-10-13T22:48:48.392Z,13.04
2022-10-13T22:51:16.727Z,13.04
2022-10-13T22:53:46.371Z,13.12
2022-10-13T22:56:14.499Z,13.04
2022-10-13T22:58:43.196Z,13.10
2022-10-13T23:01:12.617Z,13.20
2022-10-13T23:03:39.868Z,13.17
2022-10-13T23:06:07.657Z,13.07
2022-10-13T23:08:34.619Z,12.91
2022-10-13T23:11:02.445Z,12.86
2022-10-13T23:13:33.445Z,12.98
2022-10-13T23:16:03.343Z,12.90
2022-10-13T23:18:29.910Z,13.05
2022-10-13T23:20:57.079Z,12.99
2022-10-13T23:23:23.705Z,13.04
2022-10-13T23:25:50.114Z,13.01
2022-10-13T23:28:18.284Z,13.03
2022-10-13T23:30:44.726Z,13.00
2022-10-13T23:33:11.201Z,12.92
2022-10-13T23:35:40.153Z,12.85
2022-10-13T23:38:06.658Z,12.82
2022-10-13T23:40:33.409Z,12.90
2022-10-13T23:42:59.957Z,12.70
2022-10-13T23:45:27.910Z,12.85
2022-10-13T23:47:54.430Z,12.69
2022-10-13T23:50:20.989Z,12.73
2022-10-13T23:52:47.450Z,12.83
2022-10-13T23:55:13.930Z,12.89
2022-10-13T23:57:41.661Z,12.90
